首页
METAR-TAF:

METAR-TAF

机场 :

楠迪國際機場

楠迪, 斐濟

纬度: 17-45S, 经度: 177-27E, 海拔: 13米

当前天气观测

该预报发布于17分钟前的04:00 UTC
风速9节,风向东南
温度 28°C
湿度 66%
气压 1011 hPa
能见度10公里或以上
散云层高于2500英尺
散云层高于4500英尺

METAR: NFFN 230400Z 14009KT 9999 SCT025 SCT045 28/21 Q1011 NOSIG

时间: 16:17 (04:17 UTC)

预报

该预报发布于4小时和55分钟前的23:22 UTC
预报有效从23日的 00点(UTC)到 23日的 24点(UTC)
风速7节,风向东南
能见度10公里或以上
散云层高于2500英尺
多云层高于4500英尺
成为
从 23日的 23点(UTC)到 23日的 24点(UTC)
风速10节,风向西转西南

TAF: NFFN 222322Z 2300/2324 13007KT 9999 SCT025 BKN045 BECMG 2323/2324 24010KT

超过4000个机场的气象观测和天气预报(METAR&TAF报告)。

可查询的气象台以黄色和红色小点在地图上表示。

将鼠标移到小点上方,可查看气象台名称。

然后点击查看天气观测和预报。

如需切换地图:点击带黑十字的绿色按钮放大地图;点击带横线的绿色按钮缩小地图;或者点击绿色箭头查看邻近地区的地图。


METAR-TAF: